Terminal Aerodrome Forecast
Issued by NWS

Home | Current Version | Previous Version | Text Only | Print | Product List | Glossary On
Versions: 1 2 3 4 5 6 7 8 9 10 11 12 13 14 15 16 17
000
FTUS43 KICT 251731
TAFRSL
TAF
KRSL 251731Z 2518/2618 07007KT P6SM SCT008 BKN025
      TEMPO 2518/2519 BKN008
     FM252000 09010KT P6SM BKN040
     FM260800 09010KT P6SM OVC015
      TEMPO 2610/2614 OVC008=

USA.gov is the U.S. government's official web portal to all federal, state and local government web resources and services.